Time;durP1;ratioP1;P1;durP2;ratioP2;P2;SDS_P1;SDS_P2;PMS_P1;PMS_P2;Temp;Humidity;BMP_temperature;BMP_pressure;BME280_temperature;BME280_humidity;BME280_pressure;Samples;Min_cycle;Max_cycle;Signal;HPM_P1;HPM_P2
2022/07/21 00:02:15;;;;;;;8.05;5.70;;;;;;;20.68;61.89;101136.24;1701845;83;25841;-83
2022/07/21 00:04:41;;;;;;;6.60;5.33;;;;;;;20.68;61.81;101133.52;1701928;82;25919;-83
2022/07/21 00:07:08;;;;;;;6.90;4.75;;;;;;;20.66;61.90;101135.66;1702205;83;26289;-82
2022/07/21 00:09:35;;;;;;;7.58;5.33;;;;;;;20.64;61.93;101135.08;1701977;82;25963;-83
2022/07/21 00:12:05;;;;;;;7.97;5.03;;;;;;;20.62;62.15;101133.13;1689822;84;27454;-82
2022/07/21 00:14:31;;;;;;;7.22;5.78;;;;;;;20.58;62.20;101127.88;1697876;84;25817;-84
2022/07/21 00:16:58;;;;;;;6.85;5.20;;;;;;;20.54;62.43;101128.58;1702229;84;25829;-83
2022/07/21 00:19:24;;;;;;;9.55;5.75;;;;;;;20.50;62.38;101128.77;1698705;84;26493;-82
2022/07/21 00:21:50;;;;;;;7.97;5.70;;;;;;;20.44;62.44;101121.04;1734638;82;25899;-83
2022/07/21 00:24:17;;;;;;;9.18;6.60;;;;;;;20.36;62.49;101123.30;1734179;81;27510;-83
2022/07/21 00:26:43;;;;;;;10.72;7.12;;;;;;;20.28;62.69;101116.31;1669998;85;25868;-82
2022/07/21 00:29:09;;;;;;;8.03;6.60;;;;;;;20.23;62.94;101111.30;1698267;82;25375;-83
2022/07/21 00:31:35;;;;;;;10.70;6.47;;;;;;;20.18;63.21;101113.86;1715461;82;26601;-82
2022/07/21 00:34:02;;;;;;;8.10;6.30;;;;;;;20.15;63.41;101117.03;1716036;82;25869;-83
2022/07/21 00:36:28;;;;;;;10.95;6.78;;;;;;;20.13;63.59;101120.53;1707379;82;27433;-83
2022/07/21 00:38:54;;;;;;;8.98;5.90;;;;;;;20.10;63.65;101119.14;1701414;84;25907;-82
2022/07/21 00:41:21;;;;;;;11.97;6.05;;;;;;;20.00;63.79;101116.16;1700977;84;26621;-83
2022/07/21 00:43:47;;;;;;;7.97;6.33;;;;;;;19.91;64.00;101122.47;1702330;82;25540;-83
2022/07/21 00:46:17;;;;;;;6.95;5.30;;;;;;;19.83;64.19;101128.27;1699456;83;25886;-83
2022/07/21 00:48:43;;;;;;;9.83;6.20;;;;;;;19.73;64.31;101133.45;1692682;82;28300;-83
2022/07/21 00:51:09;;;;;;;7.62;5.40;;;;;;;19.64;64.42;101136.21;1701903;82;25762;-82
2022/07/21 00:53:36;;;;;;;9.18;6.05;;;;;;;19.58;64.95;101134.95;1700815;84;26424;-82
2022/07/21 00:56:02;;;;;;;9.75;5.58;;;;;;;19.56;64.92;101135.72;1702057;82;26463;-82
2022/07/21 00:58:29;;;;;;;8.35;4.87;;;;;;;19.54;64.98;101146.83;1701206;84;25843;-82
2022/07/21 01:00:55;;;;;;;6.92;5.20;;;;;;;19.52;65.07;101147.59;1701511;84;27451;-83
2022/07/21 01:03:22;;;;;;;6.50;5.67;;;;;;;19.50;65.42;101145.64;1701598;84;25834;-83
2022/07/21 01:05:49;;;;;;;8.50;5.35;;;;;;;19.47;65.76;101149.33;1701991;82;25927;-82
2022/07/21 01:08:15;;;;;;;7.10;5.65;;;;;;;19.47;66.00;101161.03;1698887;84;25658;-82
2022/07/21 01:10:42;;;;;;;7.00;5.00;;;;;;;19.48;65.96;101159.15;1701578;82;25964;-81
2022/07/21 01:13:09;;;;;;;9.00;5.62;;;;;;;19.44;66.05;101159.32;1701557;84;26931;-82
2022/07/21 01:15:35;;;;;;;7.42;5.87;;;;;;;19.40;66.01;101164.89;1708369;82;26543;-82
2022/07/21 01:18:02;;;;;;;5.90;5.10;;;;;;;19.33;65.89;101164.98;1705703;82;26004;-82
2022/07/21 01:20:34;;;;;;;8.25;5.58;;;;;;;19.29;65.95;101164.30;1700623;84;26449;-82
2022/07/21 01:23:02;;;;;;;7.60;5.37;;;;;;;19.25;65.96;101167.47;1702637;84;25596;-83
2022/07/21 01:25:28;;;;;;;6.42;5.50;;;;;;;19.21;65.67;101171.70;1702498;84;27473;-82
2022/07/21 01:27:54;;;;;;;9.98;7.28;;;;;;;19.14;65.67;101176.91;1702707;84;25931;-83
2022/07/21 01:30:21;;;;;;;8.23;7.03;;;;;;;19.07;65.92;101169.39;1702352;81;25876;-82
2022/07/21 01:32:47;;;;;;;11.60;7.85;;;;;;;19.02;65.73;101169.23;1702615;84;25936;-82
2022/07/21 01:35:15;;;;;;;9.50;7.67;;;;;;;18.96;65.71;101168.28;1702599;84;25807;-83
2022/07/21 01:37:45;;;;;;;7.80;6.97;;;;;;;18.92;66.12;101161.65;1702843;84;27466;-82
2022/07/21 01:42:58;;;;;;;6.37;5.15;;;;;;;18.77;66.05;101166.63;1702536;81;25840;-82
2022/07/21 01:45:24;;;;;;;8.95;5.72;;;;;;;18.66;66.29;101169.25;1702782;84;26279;-81
2022/07/21 01:47:51;;;;;;;5.15;4.62;;;;;;;18.65;66.65;101168.97;1702365;84;25883;-83
2022/07/21 01:50:20;;;;;;;8.70;5.22;;;;;;;18.62;66.79;101170.77;1702427;84;27457;-82
2022/07/21 01:52:46;;;;;;;7.75;5.40;;;;;;;18.61;67.33;101171.80;1701962;82;25856;-83
2022/07/21 01:55:12;;;;;;;7.72;5.42;;;;;;;18.55;67.41;101165.41;1702323;83;25876;-82
2022/07/21 01:57:39;;;;;;;6.97;6.15;;;;;;;18.50;67.76;101167.95;1702219;84;26308;-82
2022/07/21 02:00:07;;;;;;;6.70;5.83;;;;;;;18.46;67.61;101173.53;1702118;83;25839;-81
2022/07/21 02:02:33;;;;;;;7.65;4.70;;;;;;;18.41;67.87;101172.00;1701900;84;28341;-81
2022/07/21 02:04:59;;;;;;;7.40;5.17;;;;;;;18.41;68.14;101170.09;1702386;84;26199;-80
2022/07/21 02:07:26;;;;;;;5.85;5.15;;;;;;;18.44;68.01;101172.41;1702158;84;25776;-82
2022/07/21 02:09:52;;;;;;;6.65;5.25;;;;;;;18.44;67.94;101172.92;1702256;82;26562;-82
2022/07/21 02:12:18;;;;;;;7.80;5.55;;;;;;;18.40;67.76;101166.26;1702087;84;25829;-82
2022/07/21 02:14:45;;;;;;;6.62;5.00;;;;;;;18.37;68.03;101180.25;1702277;82;28117;-83
2022/07/21 02:17:11;;;;;;;7.95;5.85;;;;;;;18.34;68.01;101181.56;1702225;84;25345;-81
2022/07/21 02:19:37;;;;;;;7.97;6.28;;;;;;;18.28;68.10;101172.94;1702077;84;25786;-81
2022/07/21 02:22:04;;;;;;;7.03;5.58;;;;;;;18.24;68.17;101169.02;1702368;84;26723;-83
2022/07/21 02:24:30;;;;;;;6.83;5.58;;;;;;;18.21;67.79;101167.28;1702335;84;25956;-82
2022/07/21 02:26:56;;;;;;;7.08;5.67;;;;;;;18.17;67.91;101173.69;1702553;84;27426;-83
2022/07/21 02:29:22;;;;;;;8.00;5.47;;;;;;;18.14;68.05;101176.83;1702204;82;26578;-83
2022/07/21 02:31:49;;;;;;;7.60;4.87;;;;;;;18.13;68.15;101175.70;1702562;84;25852;-83
2022/07/21 02:34:15;;;;;;;6.05;5.37;;;;;;;18.07;68.00;101165.20;1702157;84;25775;-83
2022/07/21 02:36:41;;;;;;;8.35;5.65;;;;;;;18.04;68.00;101164.31;1702685;84;25820;-83
2022/07/21 02:39:08;;;;;;;6.53;5.35;;;;;;;18.00;68.59;101162.26;1702193;84;27460;-83
2022/07/21 02:41:34;;;;;;;8.98;5.50;;;;;;;17.96;68.69;101157.82;1702472;84;25847;-83
2022/07/21 02:44:00;;;;;;;8.03;5.70;;;;;;;17.93;68.85;101155.54;1702174;84;26561;-82
2022/07/21 02:46:27;;;;;;;7.85;5.90;;;;;;;17.89;69.00;101159.74;1702301;84;25934;-82
2022/07/21 02:48:53;;;;;;;7.08;5.35;;;;;;;17.87;69.01;101158.30;1701909;84;25816;-81
2022/07/21 02:51:20;;;;;;;6.45;5.30;;;;;;;17.86;69.01;101154.75;1702215;84;27431;-82
2022/07/21 02:53:46;;;;;;;7.58;5.25;;;;;;;17.87;69.05;101150.17;1701864;84;25896;-82
2022/07/21 02:56:13;;;;;;;6.78;5.60;;;;;;;17.87;69.06;101148.81;1701967;84;26001;-82
2022/07/21 02:58:39;;;;;;;6.90;5.70;;;;;;;17.85;69.32;101150.91;1702058;84;25861;-81
2022/07/21 03:01:07;;;;;;;9.00;5.75;;;;;;;17.84;69.40;101151.95;1702214;83;25836;-82
2022/07/21 03:03:36;;;;;;;7.53;6.53;;;;;;;17.81;69.90;101154.60;1702289;84;27475;-82
2022/07/21 03:06:04;;;;;;;9.53;5.85;;;;;;;17.77;70.24;101154.71;1702029;83;25816;-82
2022/07/21 03:08:32;;;;;;;6.28;5.62;;;;;;;17.75;70.57;101155.45;1709133;82;25884;-82
2022/07/21 03:11:00;;;;;;;6.37;5.08;;;;;;;17.76;70.18;101154.42;1712575;82;25690;-83
2022/07/21 03:13:26;;;;;;;14.63;11.00;;;;;;;17.78;70.14;101158.26;1700246;83;26200;-83
2022/07/21 03:15:53;;;;;;;15.23;10.25;;;;;;;17.80;70.25;101152.93;1702541;84;27458;-82
2022/07/21 03:18:19;;;;;;;14.58;10.82;;;;;;;17.82;70.33;101158.95;1702471;84;25308;-82
2022/07/21 03:20:45;;;;;;;13.75;11.70;;;;;;;17.84;70.30;101156.85;1702230;84;25798;-82
2022/07/21 03:23:12;;;;;;;12.53;10.80;;;;;;;17.88;70.39;101157.27;1702113;84;26253;-82
2022/07/21 03:25:39;;;;;;;10.70;7.53;;;;;;;17.89;70.35;101162.45;1702242;82;25463;-82
2022/07/21 03:28:06;;;;;;;10.08;6.35;;;;;;;17.92;70.32;101159.28;1702569;84;27503;-84
2022/07/21 03:30:33;;;;;;;16.55;6.92;;;;;;;17.96;70.14;101158.34;1702120;84;25289;-83
2022/07/21 03:32:59;;;;;;;9.95;6.67;;;;;;;17.99;70.21;101162.78;1702221;82;25947;-82
2022/07/21 03:35:26;;;;;;;7.15;6.30;;;;;;;18.01;70.06;101159.84;1702309;84;25302;-83
2022/07/21 03:37:56;;;;;;;6.60;5.90;;;;;;;18.00;69.97;101155.48;1702306;82;25735;-83
2022/07/21 03:40:25;;;;;;;8.33;6.63;;;;;;;18.00;69.94;101155.48;1702556;84;28298;-82
2022/07/21 03:42:55;;;;;;;9.23;6.83;;;;;;;18.00;70.28;101152.77;1702519;82;25875;-83
2022/07/21 03:45:24;;;;;;;7.08;6.00;;;;;;;18.00;70.43;101159.55;1702170;82;25842;-82
2022/07/21 03:47:51;;;;;;;9.48;6.70;;;;;;;18.01;70.70;101154.41;1707287;82;25757;-81
2022/07/21 03:50:17;;;;;;;7.83;6.22;;;;;;;18.07;70.64;101152.20;1706632;82;26137;-83
2022/07/21 03:52:46;;;;;;;7.92;5.75;;;;;;;18.10;70.69;101162.06;1702581;82;27998;-81
2022/07/21 03:55:18;;;;;;;8.53;6.42;;;;;;;18.17;70.80;101162.84;1707165;82;26297;-82
2022/07/21 03:57:57;;;;;;;7.90;5.60;;;;;;;18.24;71.17;101161.42;1703651;82;25347;-82
2022/07/21 04:00:37;;;;;;;6.42;5.83;;;;;;;18.24;71.09;101151.94;1681045;84;26612;-83
2022/07/21 04:03:05;;;;;;;8.08;6.00;;;;;;;18.23;71.08;101149.74;1703373;82;25795;-82
2022/07/21 04:05:32;;;;;;;7.03;5.65;;;;;;;18.25;71.16;101146.80;1701884;83;27469;-82
2022/07/21 04:07:58;;;;;;;6.70;5.55;;;;;;;18.31;71.60;101148.09;1675459;84;25918;-82
2022/07/21 04:10:32;;;;;;;8.28;5.53;;;;;;;18.40;71.50;101153.53;1703039;82;26422;-82
2022/07/21 04:13:01;;;;;;;5.08;4.42;;;;;;;18.48;71.45;101152.43;1707432;81;26612;-82
2022/07/21 04:15:28;;;;;;;10.03;5.37;;;;;;;18.56;71.46;101154.87;1676675;84;26506;-81
2022/07/21 04:17:54;;;;;;;9.05;5.80;;;;;;;18.64;71.43;101147.78;1704621;82;28296;-82
2022/07/21 04:20:21;;;;;;;6.37;5.37;;;;;;;18.71;71.63;101151.78;1706641;82;25907;-84
2022/07/21 04:22:49;;;;;;;8.35;5.80;;;;;;;18.78;71.66;101160.13;1705092;82;26289;-83
2022/07/21 04:25:17;;;;;;;8.50;5.97;;;;;;;18.85;71.64;101154.10;1704191;82;25834;-82
2022/07/21 04:27:45;;;;;;;8.85;5.58;;;;;;;18.93;71.98;101154.31;1704728;82;25869;-82
2022/07/21 04:30:16;;;;;;;11.93;5.55;;;;;;;19.01;71.64;101149.95;1706183;82;27462;-82
2022/07/21 04:32:43;;;;;;;8.05;5.17;;;;;;;19.08;71.86;101152.03;1673018;84;25899;-83
2022/07/21 04:35:14;;;;;;;8.08;4.92;;;;;;;19.14;71.79;101147.88;1705244;82;25972;-82
2022/07/21 04:37:40;;;;;;;9.53;5.33;;;;;;;19.19;71.84;101148.55;1700596;82;26262;-84
2022/07/21 04:40:10;;;;;;;8.50;5.45;;;;;;;19.24;72.00;101148.17;1703078;82;25751;-83
2022/07/21 04:42:38;;;;;;;8.45;5.47;;;;;;;19.28;72.21;101141.73;1706384;82;28273;-83
2022/07/21 04:45:06;;;;;;;7.55;5.20;;;;;;;19.33;72.37;101136.45;1705617;82;25316;-81
2022/07/21 04:47:32;;;;;;;6.28;5.53;;;;;;;19.39;72.45;101137.44;1707268;82;25892;-83
2022/07/21 04:49:59;;;;;;;11.10;5.10;;;;;;;19.43;72.50;101134.03;1705717;82;25776;-83
2022/07/21 04:52:25;;;;;;;11.78;4.70;;;;;;;19.49;72.57;101140.41;1704903;82;26443;-83
2022/07/21 04:54:51;;;;;;;7.65;4.67;;;;;;;19.58;72.20;101148.02;1703812;82;27438;-82
2022/07/21 04:57:17;;;;;;;7.50;4.55;;;;;;;19.66;72.06;101146.31;1704422;82;25917;-84
2022/07/21 04:59:44;;;;;;;10.75;5.25;;;;;;;19.75;71.89;101154.44;1704548;82;25779;-82
2022/07/21 05:02:10;;;;;;;9.65;5.22;;;;;;;19.84;71.80;101163.92;1706969;82;25865;-83
2022/07/21 05:04:36;;;;;;;10.48;5.42;;;;;;;19.94;71.75;101162.80;1707145;82;26374;-82
2022/07/21 05:07:03;;;;;;;7.53;4.62;;;;;;;20.03;71.38;101149.69;1702249;83;27446;-83
2022/07/21 05:09:29;;;;;;;8.20;4.50;;;;;;;20.12;71.70;101154.25;1703898;82;25821;-83
2022/07/21 05:11:55;;;;;;;9.68;4.55;;;;;;;20.19;71.25;101156.33;1710308;82;25844;-82
2022/07/21 05:14:22;;;;;;;10.32;5.20;;;;;;;20.29;71.17;101153.34;1711677;82;25902;-83
2022/07/21 05:16:48;;;;;;;5.75;4.70;;;;;;;20.40;70.85;101158.48;1710069;82;25903;-82
2022/07/21 05:19:14;;;;;;;6.50;4.17;;;;;;;20.47;70.57;101160.53;1730063;81;28315;-81
2022/07/21 05:21:40;;;;;;;10.03;4.67;;;;;;;20.54;70.42;101163.44;1701580;84;25851;-83
2022/07/21 05:24:08;;;;;;;8.25;4.55;;;;;;;20.62;70.18;101171.77;1699877;84;25732;-83
2022/07/21 05:26:36;;;;;;;8.70;4.90;;;;;;;20.70;70.24;101171.39;1728863;82;26443;-83
2022/07/21 05:29:02;;;;;;;5.25;4.30;;;;;;;20.77;69.71;101165.29;1702349;84;25934;-83
2022/07/21 05:31:29;;;;;;;7.10;4.40;;;;;;;20.83;69.45;101156.71;1696368;84;28280;-83
2022/07/21 05:33:55;;;;;;;5.67;3.95;;;;;;;20.92;69.63;101153.88;1731416;82;25790;-82
2022/07/21 05:36:22;;;;;;;5.20;3.50;;;;;;;20.99;68.44;101144.52;1702546;84;25794;-82
2022/07/21 05:38:48;;;;;;;4.28;3.62;;;;;;;21.08;67.99;101151.28;1702130;84;26599;-83
2022/07/21 05:41:14;;;;;;;3.80;3.33;;;;;;;21.14;67.09;101148.95;1711257;82;25399;-83
2022/07/21 05:43:41;;;;;;;8.33;3.72;;;;;;;21.22;66.86;101148.55;1697746;84;27438;-83
2022/07/21 05:46:07;;;;;;;4.10;3.30;;;;;;;21.31;66.96;101148.98;1698435;84;26141;-83
2022/07/21 05:48:33;;;;;;;7.12;3.70;;;;;;;21.41;66.49;101150.53;1698551;84;25876;-83
2022/07/21 05:51:00;;;;;;;5.00;2.95;;;;;;;21.51;66.27;101146.09;1699226;84;26559;-83
2022/07/21 05:53:26;;;;;;;6.37;3.37;;;;;;;21.58;65.11;101150.03;1700667;84;25858;-82
2022/07/21 05:55:52;;;;;;;7.95;3.47;;;;;;;21.64;64.93;101146.88;1672687;84;27436;-82
2022/07/21 05:58:22;;;;;;;3.98;2.50;;;;;;;21.69;63.93;101147.78;1697830;84;25877;-82
2022/07/21 06:01:07;;;;;;;3.33;2.83;;;;;;;21.76;63.38;101145.73;1710370;82;25785;-82
2022/07/21 06:03:17;;;;;;;4.60;2.47;;;;;;;21.83;63.11;101146.44;1725017;82;26106;-82
2022/07/21 06:05:44;;;;;;;3.75;2.17;;;;;;;21.92;62.93;101131.84;1712294;82;25917;-83
2022/07/21 06:08:11;;;;;;;3.67;2.20;;;;;;;22.01;62.17;101128.44;1715556;82;27447;-83
2022/07/21 06:10:37;;;;;;;2.55;2.33;;;;;;;22.08;60.94;101127.73;1704187;82;26184;-82
2022/07/21 06:13:03;;;;;;;5.10;1.90;;;;;;;22.15;60.27;101122.91;1704034;82;25639;-82
2022/07/21 06:15:30;;;;;;;3.40;1.90;;;;;;;22.21;59.83;101123.83;1703883;82;26442;-84
2022/07/21 06:17:56;;;;;;;3.05;1.90;;;;;;;22.28;59.54;101123.93;1714908;82;25946;-83
2022/07/21 06:20:22;;;;;;;5.15;2.85;;;;;;;22.36;58.60;101122.69;1711590;82;27466;-83
2022/07/21 06:22:48;;;;;;;6.40;2.10;;;;;;;22.44;58.40;101126.34;1706099;82;25802;-83
2022/07/21 06:25:15;;;;;;;4.25;1.82;;;;;;;22.50;58.39;101132.16;1709226;82;25812;-83
2022/07/21 06:27:43;;;;;;;4.37;2.05;;;;;;;22.56;57.32;101137.17;1713875;82;25820;-83
2022/07/21 06:30:11;;;;;;;2.12;1.60;;;;;;;22.60;56.73;101129.63;1712039;82;25912;-83
2022/07/21 06:32:37;;;;;;;2.37;1.87;;;;;;;22.66;56.29;101127.77;1673587;84;27525;-83
2022/07/21 06:35:05;;;;;;;4.35;1.87;;;;;;;22.72;55.90;101122.13;1671537;84;25824;-82
2022/07/21 06:37:31;;;;;;;3.27;1.75;;;;;;;22.79;55.29;101130.96;1701890;83;26577;-83
2022/07/21 06:39:57;;;;;;;3.37;1.75;;;;;;;22.86;55.91;101127.47;1702226;82;25852;-82
2022/07/21 06:42:24;;;;;;;4.08;1.95;;;;;;;22.94;55.71;101129.78;1703265;82;25821;-82
2022/07/21 06:44:51;;;;;;;2.77;2.02;;;;;;;23.03;55.37;101133.42;1702178;82;27631;-82
2022/07/21 06:47:17;;;;;;;1.50;1.40;;;;;;;23.10;54.64;101128.03;1703019;82;25997;-82
2022/07/21 06:49:43;;;;;;;2.12;1.55;;;;;;;23.15;54.08;101132.73;1701972;84;25756;-82
2022/07/21 06:52:10;;;;;;;4.95;1.57;;;;;;;23.22;53.41;101142.93;1705270;82;25821;-83
2022/07/21 06:54:36;;;;;;;2.83;1.67;;;;;;;23.27;53.11;101141.06;1711374;82;25757;-83
2022/07/21 06:57:03;;;;;;;1.50;1.40;;;;;;;23.32;53.07;101149.87;1707172;82;27453;-82
2022/07/21 06:59:29;;;;;;;3.83;1.30;;;;;;;23.38;53.04;101148.33;1708165;82;25620;-83
2022/07/21 07:01:55;;;;;;;3.65;1.77;;;;;;;23.45;53.13;101152.23;1692408;82;25493;-82
2022/07/21 07:04:22;;;;;;;2.77;1.70;;;;;;;23.52;52.87;101149.55;1717790;82;25764;-83
2022/07/21 07:06:51;;;;;;;3.33;1.60;;;;;;;23.56;52.11;101153.98;1708482;82;25980;-82
2022/07/21 07:09:16;;;;;;;5.45;1.60;;;;;;;23.61;52.31;101158.12;1724898;82;28114;-83
2022/07/21 07:11:42;;;;;;;2.45;1.62;;;;;;;23.66;51.86;101163.65;1726623;82;25692;-83
2022/07/21 07:14:08;;;;;;;1.40;1.30;;;;;;;23.71;51.86;101170.55;1723637;82;25607;-82
2022/07/21 07:16:35;;;;;;;8.90;1.55;;;;;;;23.75;51.60;101158.83;1710277;82;26264;-82
2022/07/21 07:19:01;;;;;;;2.83;1.35;;;;;;;23.85;51.82;101164.08;1726415;82;25873;-82
2022/07/21 07:21:27;;;;;;;5.87;1.57;;;;;;;23.91;50.88;101160.33;1729936;82;28282;-83
2022/07/21 07:23:53;;;;;;;3.15;1.60;;;;;;;23.98;51.14;101161.75;1726740;82;25910;-82
2022/07/21 07:26:20;;;;;;;3.85;1.40;;;;;;;24.06;51.22;101157.19;1730052;82;25779;-84
2022/07/21 07:28:46;;;;;;;2.12;1.35;;;;;;;24.09;50.07;101155.84;1726115;82;26008;-83
2022/07/21 07:31:12;;;;;;;2.27;1.17;;;;;;;24.14;49.39;101149.88;1727490;82;25926;-83
2022/07/21 07:33:39;;;;;;;2.20;1.60;;;;;;;24.19;50.16;101147.16;1719534;82;27679;-84
2022/07/21 07:36:06;;;;;;;2.65;1.57;;;;;;;24.23;49.56;101142.00;1727414;81;25648;-83
2022/07/21 07:38:33;;;;;;;2.60;1.17;;;;;;;24.27;48.90;101152.13;1730096;82;25742;-83
2022/07/21 07:40:59;;;;;;;2.35;1.30;;;;;;;24.31;49.17;101142.33;1718400;82;25897;-83
2022/07/21 07:43:27;;;;;;;1.12;1.02;;;;;;;24.36;48.49;101139.61;1705985;82;25876;-83
2022/07/21 07:45:54;;;;;;;2.70;1.30;;;;;;;24.42;48.70;101142.65;1699280;82;28301;-83
2022/07/21 07:48:20;;;;;;;2.33;1.12;;;;;;;24.49;48.89;101147.89;1704796;82;26533;-83
2022/07/21 07:50:46;;;;;;;1.98;1.10;;;;;;;24.57;48.17;101149.32;1701524;82;25918;-83
2022/07/21 07:53:13;;;;;;;4.83;1.10;;;;;;;24.63;48.18;101146.89;1701628;82;26709;-82
2022/07/21 07:55:39;;;;;;;2.77;1.22;;;;;;;24.66;48.12;101144.42;1701797;82;25934;-82
2022/07/21 07:58:06;;;;;;;1.32;0.93;;;;;;;24.72;47.49;101151.58;1701592;84;27502;-83
2022/07/21 08:00:32;;;;;;;2.80;1.30;;;;;;;24.82;47.92;101148.94;1701228;83;26193;-81
2022/07/21 08:02:58;;;;;;;3.30;1.30;;;;;;;24.89;47.54;101154.97;1701763;82;25817;-82
2022/07/21 08:05:25;;;;;;;2.98;1.17;;;;;;;24.92;46.42;101148.14;1701832;84;26583;-82
2022/07/21 08:07:51;;;;;;;2.55;1.15;;;;;;;24.94;47.18;101147.32;1701960;82;25947;-82
2022/07/21 08:10:17;;;;;;;2.42;1.02;;;;;;;24.99;47.20;101148.72;1701709;84;27456;-82
2022/07/21 08:12:44;;;;;;;3.17;1.30;;;;;;;25.02;46.99;101154.48;1701533;82;26140;-82
2022/07/21 08:15:10;;;;;;;1.30;1.20;;;;;;;25.09;46.80;101156.97;1702075;82;26026;-82
2022/07/21 08:17:36;;;;;;;2.40;1.25;;;;;;;25.13;45.87;101149.31;1741228;76;26512;-82
2022/07/21 08:20:05;;;;;;;1.80;1.25;;;;;;;25.16;46.36;101147.42;1694695;82;25870;-82
2022/07/21 08:22:31;;;;;;;3.70;1.20;;;;;;;25.21;46.46;101154.84;1705165;83;27456;-82
2022/07/21 08:24:58;;;;;;;3.72;1.20;;;;;;;25.24;46.37;101155.66;1697484;83;25793;-81
2022/07/21 08:27:24;;;;;;;4.50;1.45;;;;;;;25.30;46.47;101157.88;1715492;82;25870;-82
2022/07/21 08:29:50;;;;;;;2.90;1.10;;;;;;;25.35;46.77;101158.70;1743453;81;26379;-83
2022/07/21 08:32:17;;;;;;;5.33;1.10;;;;;;;25.39;46.67;101161.18;1740248;82;25946;-82
2022/07/21 08:38:04;;;;;;;1.30;0.95;;;;;;;25.46;46.54;101163.16;1667072;79;27874;-81
2022/07/21 08:40:35;;;;;;;3.30;1.00;;;;;;;25.47;45.63;101164.78;1661353;85;25927;-82
2022/07/21 08:43:03;;;;;;;3.72;1.27;;;;;;;25.53;45.66;101162.36;1689586;84;26484;-82
2022/07/21 08:45:30;;;;;;;4.80;1.40;;;;;;;25.60;45.67;101167.01;1694631;84;25880;-82
2022/07/21 08:47:59;;;;;;;1.50;1.15;;;;;;;25.68;46.57;101167.03;1690743;83;28093;-82
2022/07/21 08:50:30;;;;;;;2.47;1.07;;;;;;;25.71;46.22;101159.07;1677149;84;25588;-82
2022/07/21 08:52:57;;;;;;;2.15;1.07;;;;;;;25.78;46.01;101158.27;1687332;84;25811;-80
2022/07/21 08:55:24;;;;;;;2.12;1.25;;;;;;;25.80;44.84;101149.75;1689549;84;25824;-82
2022/07/21 08:57:50;;;;;;;4.95;1.30;;;;;;;25.81;44.78;101145.34;1720483;82;25992;-81
2022/07/21 09:00:17;;;;;;;3.02;1.47;;;;;;;25.84;44.57;101143.44;1721012;83;27679;-82
2022/07/21 09:02:43;;;;;;;3.47;1.20;;;;;;;25.87;45.10;101144.27;1718122;82;25842;-83
2022/07/21 09:05:10;;;;;;;3.80;1.35;;;;;;;25.94;46.06;101143.42;1713963;83;25843;-81
2022/07/21 09:07:54;;;;;;;2.75;1.15;;;;;;;25.98;45.84;101142.35;1789081;76;26610;-84
2022/07/21 09:10:23;;;;;;;1.95;0.90;;;;;;;26.05;44.22;101143.45;1795067;78;26170;-82
2022/07/21 09:12:57;;;;;;;3.47;1.40;;;;;;;26.12;45.82;101139.88;1791981;78;27445;-84
2022/07/21 09:15:26;;;;;;;4.60;1.52;;;;;;;26.15;45.50;101137.97;1821074;77;25499;-81
2022/07/21 09:18:13;;;;;;;1.53;1.10;;;;;;;26.19;44.78;101140.43;1805359;77;26473;31
2022/07/21 09:20:53;;;;;;;3.45;1.32;;;;;;;26.28;44.57;101136.03;1739608;81;26293;-83
2022/07/21 09:23:23;;;;;;;2.10;1.05;;;;;;;26.29;44.59;101134.37;1739701;80;25960;-82
2022/07/21 09:25:56;;;;;;;2.42;1.00;;;;;;;26.33;45.36;101131.34;1738620;81;27490;-82
2022/07/21 09:28:29;;;;;;;3.55;1.10;;;;;;;26.37;45.30;101133.80;1696864;83;25317;-81
2022/07/21 09:31:06;;;;;;;1.32;1.10;;;;;;;26.39;45.33;101128.05;1725151;82;25998;-82
2022/07/21 09:33:45;;;;;;;7.05;1.42;;;;;;;26.41;45.26;101132.13;1739743;82;25777;-83
2022/07/21 09:36:17;;;;;;;4.65;1.47;;;;;;;26.41;45.43;101127.22;1732922;81;25927;-82
2022/07/21 09:38:50;;;;;;;1.42;1.17;;;;;;;26.40;44.12;101126.38;1742110;78;27422;-81
2022/07/21 09:41:22;;;;;;;3.40;1.00;;;;;;;26.45;44.74;101127.72;1745454;81;26452;-85
2022/07/21 09:43:52;;;;;;;10.85;1.47;;;;;;;26.51;44.34;101128.01;1741035;82;25820;-82
2022/07/21 09:49:32;;;;;;;3.17;1.15;;;;;;;26.58;44.78;101132.63;1783745;78;26754;-82
2022/07/21 09:51:58;;;;;;;2.15;1.60;;;;;;;26.68;44.98;101136.75;1780908;79;27632;-81
2022/07/21 09:54:44;;;;;;;3.17;1.10;;;;;;;26.73;44.80;101127.70;1726834;79;25719;31
2022/07/21 09:57:11;;;;;;;4.72;1.32;;;;;;;26.78;44.23;101118.58;1728405;81;25885;-83
2022/07/21 09:59:45;;;;;;;2.90;1.22;;;;;;;26.83;43.52;101119.40;1750647;78;26663;-82
2022/07/21 10:02:17;;;;;;;1.72;1.02;;;;;;;26.82;43.21;101117.73;1775233;79;25328;-82
2022/07/21 10:04:46;;;;;;;2.35;1.47;;;;;;;26.84;43.16;101120.23;1795405;79;27486;-82
2022/07/21 10:07:15;;;;;;;2.15;1.50;;;;;;;26.84;43.08;101121.03;1809120;79;25790;-83
2022/07/21 10:09:43;;;;;;;2.87;1.50;;;;;;;26.86;43.54;101118.02;1803346;78;25698;-82
2022/07/21 10:12:10;;;;;;;3.33;1.20;;;;;;;26.93;43.90;101113.02;1797710;78;25814;-82
2022/07/21 10:14:37;;;;;;;4.03;1.37;;;;;;;27.00;43.48;101113.54;1811335;78;25874;-82
2022/07/21 10:17:05;;;;;;;2.90;1.27;;;;;;;27.02;42.38;101114.91;1792798;78;28376;-84
2022/07/21 10:19:49;;;;;;;2.20;1.10;;;;;;;27.03;42.23;101106.11;1793942;78;26246;-82
2022/07/21 10:22:41;;;;;;;4.35;1.30;;;;;;;27.10;43.46;101109.34;1772906;78;25819;-82
2022/07/21 10:25:08;;;;;;;2.42;1.45;;;;;;;27.16;43.15;101104.91;1802784;78;25789;-82
2022/07/21 10:27:34;;;;;;;3.87;1.92;;;;;;;27.27;42.91;101095.50;1808797;78;25931;-82
2022/07/21 10:30:05;;;;;;;3.42;1.50;;;;;;;27.32;43.61;101095.47;1807868;78;27426;-82
2022/07/21 10:32:38;;;;;;;1.90;1.37;;;;;;;27.41;42.78;101093.80;1796748;79;26071;-83
2022/07/21 10:35:28;;;;;;;3.02;1.55;;;;;;;27.50;42.65;101086.55;1783392;79;25738;-81
2022/07/21 10:37:56;;;;;;;2.42;1.22;;;;;;;27.52;42.34;101079.95;1794716;79;26220;-82
2022/07/21 10:40:28;;;;;;;2.65;0.98;;;;;;;27.61;42.80;101081.78;1797340;79;25921;-83
2022/07/21 10:43:03;;;;;;;2.10;1.25;;;;;;;27.72;43.17;101075.64;1800750;79;45505;-83
2022/07/21 10:45:42;;;;;;;3.12;1.00;;;;;;;27.78;42.15;101070.38;1808207;78;25309;-83
2022/07/21 10:48:14;;;;;;;4.40;1.57;;;;;;;27.80;43.41;101068.16;1803281;79;25848;-82
2022/07/21 10:50:42;;;;;;;6.17;1.42;;;;;;;27.78;41.50;101069.00;1777189;79;26598;-83
2022/07/21 10:53:18;;;;;;;2.52;1.40;;;;;;;27.81;42.48;101071.16;1782771;79;25933;-82
2022/07/21 10:55:51;;;;;;;2.02;1.42;;;;;;;27.83;41.32;101064.27;1791344;79;27438;-77
2022/07/21 10:58:30;;;;;;;3.27;1.42;;;;;;;27.84;42.31;101071.42;1787095;79;25910;-76
2022/07/21 11:01:24;;;;;;;1.65;1.45;;;;;;;27.90;41.28;101070.81;1795472;79;25807;-76
2022/07/21 11:04:13;;;;;;;5.75;1.52;;;;;;;27.94;42.53;101067.19;1785002;79;26182;-76
2022/07/21 11:06:41;;;;;;;1.82;1.37;;;;;;;27.99;42.68;101063.02;1802317;79;25789;-84
2022/07/21 11:12:03;;;;;;;6.85;1.90;;;;;;;28.13;41.05;101057.66;1650957;84;26381;-79
2022/07/21 11:14:40;;;;;;;3.80;1.60;;;;;;;28.17;42.09;101055.95;1653383;84;26032;-88
2022/07/21 11:17:10;;;;;;;1.47;1.10;;;;;;;28.20;42.59;101051.25;1659311;85;25958;-81
2022/07/21 11:19:50;;;;;;;3.30;1.35;;;;;;;28.27;42.46;101053.66;1688139;80;26678;-87
2022/07/21 11:22:26;;;;;;;4.35;1.72;;;;;;;28.33;42.05;101055.23;1694344;82;27541;-86
2022/07/21 11:24:59;;;;;;;3.55;1.20;;;;;;;28.40;41.63;101049.62;1700002;83;25831;-87
2022/07/21 11:33:22;;;;;;;1.20;1.10;;;;;;;28.65;41.12;101043.84;1664824;80;26582;-80
2022/07/21 11:35:49;;;;;;;5.10;1.40;;;;;;;28.68;40.03;101047.92;1656940;82;27468;-80
2022/07/21 11:38:15;;;;;;;6.15;1.40;;;;;;;28.77;40.55;101043.39;1672717;81;26858;-80
2022/07/21 11:40:42;;;;;;;4.55;1.80;;;;;;;28.81;40.67;101040.30;1640722;85;25849;-81
2022/07/21 11:43:08;;;;;;;4.33;1.80;;;;;;;28.84;42.22;101036.95;1647558;85;26750;-80
2022/07/21 11:45:34;;;;;;;3.05;1.57;;;;;;;28.83;41.10;101044.41;1659828;85;25929;-80
2022/07/21 11:48:00;;;;;;;2.95;1.52;;;;;;;28.85;41.84;101039.41;1668897;83;27462;-82